Time;durP1;ratioP1;P1;durP2;ratioP2;P2;SDS_P1;SDS_P2;PMS_P1;PMS_P2;Temp;Humidity;BMP_temperature;BMP_pressure;BME280_temperature;BME280_humidity;BME280_pressure;Samples;Min_cycle;Max_cycle;Signal;HPM_P1;HPM_P2
2022/09/08 00:02:13;;;;;;;30.02;26.93;;;;;;;;;;1796106;78;21194;-83
2022/09/08 00:04:44;;;;;;;31.60;28.25;;;;;;;;;;1850258;76;21085;-83
2022/09/08 00:07:16;;;;;;;28.92;26.02;;;;;;;;;;1852146;76;21681;-85
2022/09/08 00:09:46;;;;;;;29.25;26.35;;;;;;;;;;1848372;75;21161;-85
2022/09/08 00:12:18;;;;;;;23.05;20.65;;;;;;;;;;1848769;76;21138;-86
2022/09/08 00:14:48;;;;;;;25.12;21.97;;;;;;;;;;1862697;77;21153;-84
2022/09/08 00:17:18;;;;;;;23.57;21.10;;;;;;;;;;1855296;77;21177;-84
2022/09/08 00:19:49;;;;;;;24.75;22.15;;;;;;;;;;1855573;76;21165;-85
2022/09/08 00:22:19;;;;;;;25.60;22.93;;;;;;;;;;1869651;75;21538;-85
2022/09/08 00:24:49;;;;;;;28.10;24.80;;;;;;;;;;1866925;76;21134;-84
2022/09/08 00:27:19;;;;;;;28.80;25.12;;;;;;;;;;1857760;77;21071;-86
2022/09/08 00:29:49;;;;;;;25.90;23.30;;;;;;;;;;1862331;76;21154;-85
2022/09/08 00:32:20;;;;;;;26.75;24.00;;;;;;;;;;1860177;75;21162;-86
2022/09/08 00:34:50;;;;;;;25.10;22.42;;;;;;;;;;1877000;75;21423;-86
2022/09/08 00:37:21;;;;;;;25.15;22.62;;;;;;;;;;1822377;77;22182;-86
2022/09/08 00:39:51;;;;;;;24.12;21.73;;;;;;;;;;1784704;78;21213;-86
2022/09/08 00:42:21;;;;;;;25.27;22.58;;;;;;;;;;1858054;75;21154;-86
2022/09/08 00:44:53;;;;;;;28.38;22.37;;;;;;;;;;1860726;75;21253;-86
2022/09/08 00:47:24;;;;;;;24.92;22.42;;;;;;;;;;1860111;75;21200;-85
2022/09/08 00:49:56;;;;;;;25.15;22.45;;;;;;;;;;1866026;75;21119;-85
2022/09/08 00:52:27;;;;;;;24.57;22.02;;;;;;;;;;1868811;75;21129;-85
2022/09/08 00:54:57;;;;;;;26.70;23.87;;;;;;;;;;1858856;75;21258;-84
2022/09/08 00:57:27;;;;;;;25.30;22.77;;;;;;;;;;1874724;75;21196;-84
2022/09/08 00:59:58;;;;;;;27.07;24.37;;;;;;;;;;1897696;74;21123;-84
2022/09/08 01:02:30;;;;;;;26.37;23.65;;;;;;;;;;1893657;74;21080;-86
2022/09/08 01:05:01;;;;;;;28.50;25.60;;;;;;;;;;1884511;74;21129;-87
2022/09/08 01:12:46;;;;;;;26.93;24.10;;;;;;;;;;1874510;74;21237;-84
2022/09/08 01:15:11;;;;;;;27.67;24.85;;;;;;;;;;1894382;74;21718;-84
2022/09/08 01:17:40;;;;;;;26.23;23.42;;;;;;;;;;1894947;74;21168;-83
2022/09/08 01:20:13;;;;;;;25.82;23.22;;;;;;;;;;1892019;74;21866;-83
2022/09/08 01:22:45;;;;;;;26.60;23.75;;;;;;;;;;1883163;74;21551;-84
2022/09/08 01:25:14;;;;;;;27.48;24.57;;;;;;;;;;1890416;74;21230;-85
2022/09/08 01:27:46;;;;;;;27.35;24.63;;;;;;;;;;1893378;74;21183;-85
2022/09/08 01:30:19;;;;;;;28.98;25.97;;;;;;;;;;1896172;74;21238;-84
2022/09/08 01:32:49;;;;;;;28.17;25.35;;;;;;;;;;1891805;74;21812;-85
2022/09/08 01:35:25;;;;;;;28.05;25.25;;;;;;;;;;1885555;74;21160;-86
2022/09/08 01:37:52;;;;;;;27.77;24.82;;;;;;;;;;1885284;74;21579;-86
2022/09/08 01:40:22;;;;;;;27.65;23.55;;;;;;;;;;1893328;74;21124;-86
2022/09/08 01:42:52;;;;;;;29.42;24.80;;;;;;;;;;1894269;74;21060;-85
2022/09/08 01:45:23;;;;;;;29.37;25.52;;;;;;;;;;1885606;75;21246;-87
2022/09/08 01:47:54;;;;;;;27.27;24.40;;;;;;;;;;1886925;74;21186;-86
2022/09/08 01:50:24;;;;;;;26.55;23.55;;;;;;;;;;1885025;76;21085;-87
2022/09/08 01:52:55;;;;;;;27.17;24.20;;;;;;;;;;1881776;74;21097;-72
2022/09/08 01:55:25;;;;;;;34.95;25.40;;;;;;;;;;1882484;74;21141;-71
2022/09/08 01:57:59;;;;;;;27.58;24.70;;;;;;;;;;1887482;75;21164;-74
2022/09/08 02:00:30;;;;;;;28.07;23.98;;;;;;;;;;1800877;77;21274;-72
2022/09/08 02:03:00;;;;;;;29.95;24.92;;;;;;;;;;1779612;79;21199;-73
2022/09/08 02:05:34;;;;;;;24.87;22.32;;;;;;;;;;1774789;78;21725;-73
2022/09/08 02:08:04;;;;;;;26.45;22.50;;;;;;;;;;1867022;76;21126;-75
2022/09/08 02:10:35;;;;;;;22.25;20.05;;;;;;;;;;1869346;76;21090;-75
2022/09/08 02:13:05;;;;;;;25.02;22.37;;;;;;;;;;1871953;76;21125;-73
2022/09/08 02:15:37;;;;;;;24.37;21.25;;;;;;;;;;1866149;75;21165;-75
2022/09/08 02:18:07;;;;;;;25.90;23.02;;;;;;;;;;1853615;75;21255;-74
2022/09/08 02:20:38;;;;;;;24.40;21.15;;;;;;;;;;1867475;76;21251;-75
2022/09/08 02:23:11;;;;;;;25.40;22.67;;;;;;;;;;1871566;75;21180;-74
2022/09/08 02:25:42;;;;;;;24.77;21.77;;;;;;;;;;1867212;76;21153;-74
2022/09/08 02:28:12;;;;;;;23.27;20.97;;;;;;;;;;1782398;79;21253;-73
2022/09/08 02:30:42;;;;;;;24.00;21.42;;;;;;;;;;1784523;78;21197;-72
2022/09/08 02:33:16;;;;;;;23.85;21.17;;;;;;;;;;1857410;76;21160;-73
2022/09/08 02:35:51;;;;;;;22.65;20.40;;;;;;;;;;1867491;76;21253;-73
2022/09/08 02:38:18;;;;;;;23.55;21.15;;;;;;;;;;1819390;77;21145;-73
2022/09/08 02:40:49;;;;;;;22.95;20.17;;;;;;;;;;1875441;75;21231;-73
2022/09/08 02:43:20;;;;;;;22.55;20.35;;;;;;;;;;1866528;75;21139;-74
2022/09/08 02:45:50;;;;;;;24.80;21.30;;;;;;;;;;1870543;75;21141;-74
2022/09/08 02:48:21;;;;;;;23.87;21.40;;;;;;;;;;1826202;77;21129;-73
2022/09/08 02:50:51;;;;;;;27.40;23.47;;;;;;;;;;1781991;78;21202;-72
2022/09/08 02:53:21;;;;;;;24.98;22.27;;;;;;;;;;1804075;79;21945;-73
2022/09/08 02:55:51;;;;;;;26.10;22.73;;;;;;;;;;1793882;78;21297;-73
2022/09/08 02:58:21;;;;;;;26.05;23.18;;;;;;;;;;1809109;77;21645;-74
2022/09/08 03:00:55;;;;;;;25.75;23.00;;;;;;;;;;1879477;75;21971;-75
2022/09/08 03:03:27;;;;;;;25.08;22.45;;;;;;;;;;1866365;75;21089;-73
2022/09/08 03:05:58;;;;;;;24.05;21.77;;;;;;;;;;1876581;76;21683;-73
2022/09/08 03:08:31;;;;;;;25.05;22.45;;;;;;;;;;1874839;76;21157;-74
2022/09/08 03:11:02;;;;;;;23.57;21.17;;;;;;;;;;1846599;77;21231;-75
2022/09/08 03:13:35;;;;;;;24.60;22.17;;;;;;;;;;1866925;75;21172;-74
2022/09/08 03:16:05;;;;;;;25.15;22.55;;;;;;;;;;1864598;76;21121;-74
2022/09/08 03:18:36;;;;;;;26.27;23.57;;;;;;;;;;1869079;75;21141;-74
2022/09/08 03:21:10;;;;;;;24.63;22.13;;;;;;;;;;1868204;75;21101;-74
2022/09/08 03:23:43;;;;;;;24.70;21.62;;;;;;;;;;1872906;75;21137;-75
2022/09/08 03:26:15;;;;;;;24.55;21.93;;;;;;;;;;1874230;76;21121;-74
2022/09/08 03:28:52;;;;;;;23.75;21.02;;;;;;;;;;1875039;76;21085;-75
2022/09/08 03:31:23;;;;;;;24.35;21.90;;;;;;;;;;1879006;76;21178;-74
2022/09/08 03:33:56;;;;;;;25.45;21.30;;;;;;;;;;1872638;76;21184;-75
2022/09/08 03:36:29;;;;;;;23.47;21.10;;;;;;;;;;1871785;75;21159;-74
2022/09/08 03:38:59;;;;;;;25.57;22.87;;;;;;;;;;1872563;75;21094;-74
2022/09/08 03:41:30;;;;;;;25.02;22.42;;;;;;;;;;1871037;75;21553;-74
2022/09/08 03:44:03;;;;;;;23.22;20.92;;;;;;;;;;1866558;75;21086;-75
2022/09/08 03:46:37;;;;;;;25.37;22.67;;;;;;;;;;1867153;76;21143;-74
2022/09/08 03:49:07;;;;;;;23.80;21.50;;;;;;;;;;1877537;76;21179;-74
2022/09/08 03:51:40;;;;;;;24.27;21.77;;;;;;;;;;1876226;76;21282;-74
2022/09/08 03:56:53;;;;;;;23.85;21.50;;;;;;;;;;1868821;76;21179;-74
2022/09/08 03:59:24;;;;;;;24.67;22.00;;;;;;;;;;1874276;76;21121;-75
2022/09/08 04:01:55;;;;;;;25.75;23.15;;;;;;;;;;1860912;76;21153;-73
2022/09/08 04:04:29;;;;;;;24.45;21.87;;;;;;;;;;1860495;75;21086;-73
2022/09/08 04:07:00;;;;;;;25.75;23.05;;;;;;;;;;1861270;76;21152;-74
2022/09/08 04:09:30;;;;;;;24.85;22.35;;;;;;;;;;1855753;75;21122;-73
2022/09/08 04:12:01;;;;;;;23.83;21.52;;;;;;;;;;1854101;77;21136;-74
2022/09/08 04:14:31;;;;;;;24.10;21.55;;;;;;;;;;1854971;76;21231;-74
2022/09/08 04:17:01;;;;;;;24.82;22.20;;;;;;;;;;1859746;76;21169;-74
2022/09/08 04:19:34;;;;;;;27.07;23.20;;;;;;;;;;1841444;76;21153;-73
2022/09/08 04:22:06;;;;;;;26.70;24.05;;;;;;;;;;1847606;76;21094;-74
2022/09/08 04:24:36;;;;;;;24.60;21.80;;;;;;;;;;1856560;76;21137;-74
2022/09/08 04:27:07;;;;;;;25.23;22.62;;;;;;;;;;1823212;78;21165;-74
2022/09/08 04:29:40;;;;;;;24.32;21.93;;;;;;;;;;1776944;79;21158;-74
2022/09/08 04:32:15;;;;;;;23.67;21.37;;;;;;;;;;1859025;77;21333;-74
2022/09/08 04:34:51;;;;;;;24.27;21.77;;;;;;;;;;1857284;77;21146;-74
2022/09/08 04:37:20;;;;;;;24.43;21.27;;;;;;;;;;1848624;76;21159;-74
2022/09/08 04:39:50;;;;;;;23.67;21.17;;;;;;;;;;1857249;77;21189;-74
2022/09/08 04:42:23;;;;;;;25.37;22.67;;;;;;;;;;1861351;76;21597;-74
2022/09/08 04:44:52;;;;;;;25.10;22.70;;;;;;;;;;1844901;77;21157;-73
2022/09/08 04:47:25;;;;;;;24.70;22.02;;;;;;;;;;1862581;77;21199;-74
2022/09/08 04:49:57;;;;;;;23.30;20.85;;;;;;;;;;1845809;77;21194;-73
2022/09/08 04:52:28;;;;;;;23.70;21.20;;;;;;;;;;1814102;77;21139;-74
2022/09/08 04:54:59;;;;;;;23.12;20.82;;;;;;;;;;1851300;75;21145;-73
2022/09/08 04:57:29;;;;;;;23.30;20.80;;;;;;;;;;1857545;76;21213;-74
2022/09/08 04:59:59;;;;;;;21.90;19.70;;;;;;;;;;1858491;75;21164;-72
2022/09/08 05:02:32;;;;;;;24.15;21.57;;;;;;;;;;1868893;75;21084;-73
2022/09/08 05:05:01;;;;;;;21.97;19.77;;;;;;;;;;1858162;75;21564;-73
2022/09/08 05:07:34;;;;;;;21.60;19.37;;;;;;;;;;1870247;76;21554;-72
2022/09/08 05:10:07;;;;;;;21.37;19.17;;;;;;;;;;1861628;75;21231;-73
2022/09/08 05:12:39;;;;;;;21.97;19.70;;;;;;;;;;1872717;75;21133;-73
2022/09/08 05:15:10;;;;;;;22.37;18.98;;;;;;;;;;1871415;75;21183;-73
2022/09/08 05:17:40;;;;;;;20.95;18.75;;;;;;;;;;1869082;75;21169;-74
2022/09/08 05:20:13;;;;;;;20.50;18.40;;;;;;;;;;1874373;76;21090;-72
2022/09/08 05:22:44;;;;;;;20.57;18.45;;;;;;;;;;1798009;79;21217;-73
2022/09/08 05:25:14;;;;;;;20.43;18.30;;;;;;;;;;1808165;78;21157;-73
2022/09/08 05:27:44;;;;;;;18.07;16.27;;;;;;;;;;1810292;78;21184;-72
2022/09/08 05:30:15;;;;;;;18.23;16.42;;;;;;;;;;1811581;78;21183;-73
2022/09/08 05:32:46;;;;;;;18.35;16.45;;;;;;;;;;1795946;78;21117;-71
2022/09/08 05:35:19;;;;;;;17.15;15.50;;;;;;;;;;1808129;77;21239;-72
2022/09/08 05:37:50;;;;;;;18.87;16.97;;;;;;;;;;1810361;79;21126;-73
2022/09/08 05:40:20;;;;;;;17.15;15.45;;;;;;;;;;1810363;79;21689;-72
2022/09/08 05:42:51;;;;;;;17.12;15.40;;;;;;;;;;1815154;79;21190;-72
2022/09/08 05:45:21;;;;;;;17.32;15.35;;;;;;;;;;1815995;77;21113;-73
2022/09/08 05:47:51;;;;;;;19.35;16.35;;;;;;;;;;1820672;77;21178;-74
2022/09/08 05:50:22;;;;;;;17.82;15.88;;;;;;;;;;1819482;79;21092;-74
2022/09/08 05:52:52;;;;;;;17.60;15.90;;;;;;;;;;1813856;79;21090;-74
2022/09/08 05:55:22;;;;;;;17.67;15.88;;;;;;;;;;1806961;77;21192;-74
2022/09/08 05:57:53;;;;;;;17.73;15.68;;;;;;;;;;1807278;79;21150;-74
2022/09/08 06:00:25;;;;;;;16.00;14.38;;;;;;;;;;1829955;78;21173;-74
2022/09/08 06:02:55;;;;;;;15.83;14.25;;;;;;;;;;1812733;76;21194;-74
2022/09/08 06:05:25;;;;;;;16.32;14.63;;;;;;;;;;1807198;78;21207;-74
2022/09/08 06:07:59;;;;;;;17.02;15.23;;;;;;;;;;1813052;78;21135;-74
2022/09/08 06:10:48;;;;;;;17.02;15.20;;;;;;;;;;1807022;78;21559;-75
2022/09/08 06:13:21;;;;;;;18.42;14.90;;;;;;;;;;1880724;75;21135;-75
2022/09/08 06:15:51;;;;;;;15.98;14.40;;;;;;;;;;1890486;75;21906;-76
2022/09/08 06:18:21;;;;;;;17.77;15.10;;;;;;;;;;1845682;77;21209;-75
2022/09/08 06:20:57;;;;;;;15.25;13.68;;;;;;;;;;1844104;77;21084;-76
2022/09/08 06:23:24;;;;;;;15.75;13.93;;;;;;;;;;1875442;76;21225;-75
2022/09/08 06:25:55;;;;;;;14.55;13.15;;;;;;;;;;1869921;76;21153;-76
2022/09/08 06:28:25;;;;;;;15.85;13.18;;;;;;;;;;1871423;76;21166;-76
2022/09/08 06:30:55;;;;;;;14.83;13.22;;;;;;;;;;1869297;76;21080;-75
2022/09/08 06:33:27;;;;;;;15.38;13.78;;;;;;;;;;1867867;76;21103;-75
2022/09/08 06:35:59;;;;;;;14.80;13.10;;;;;;;;;;1859937;77;21608;-75
2022/09/08 06:38:30;;;;;;;17.00;13.05;;;;;;;;;;1871220;76;21095;-75
2022/09/08 06:41:02;;;;;;;14.25;12.82;;;;;;;;;;1842079;75;21205;-76
2022/09/08 06:43:33;;;;;;;17.73;13.88;;;;;;;;;;1863566;75;21191;-76
2022/09/08 06:46:06;;;;;;;15.23;13.15;;;;;;;;;;1857737;75;21539;-76
2022/09/08 06:48:40;;;;;;;15.60;14.05;;;;;;;;;;1880743;75;21079;-76
2022/09/08 06:51:10;;;;;;;14.45;12.82;;;;;;;;;;1879058;76;21147;-74
2022/09/08 06:53:42;;;;;;;13.58;12.03;;;;;;;;;;1871895;76;21137;-74
2022/09/08 06:56:14;;;;;;;13.90;12.40;;;;;;;;;;1853849;75;21223;-75
2022/09/08 06:58:46;;;;;;;14.87;12.78;;;;;;;;;;1873310;76;21186;-75
2022/09/08 07:01:18;;;;;;;13.62;12.23;;;;;;;;;;1870289;75;21717;-76
2022/09/08 07:03:49;;;;;;;12.13;10.93;;;;;;;;;;1888726;76;21135;-75
2022/09/08 07:06:21;;;;;;;11.75;10.53;;;;;;;;;;1882604;75;21190;-75
2022/09/08 07:08:53;;;;;;;10.68;9.55;;;;;;;;;;1881876;75;21189;-75
2022/09/08 07:11:24;;;;;;;11.22;10.13;;;;;;;;;;1880385;75;21159;-75
2022/09/08 07:13:55;;;;;;;12.15;11.00;;;;;;;;;;1928272;72;21117;-74
2022/09/08 07:16:26;;;;;;;12.37;10.78;;;;;;;;;;1930066;74;21165;-75
2022/09/08 07:18:58;;;;;;;13.03;10.78;;;;;;;;;;1919084;74;21243;-75
2022/09/08 07:21:30;;;;;;;16.12;11.05;;;;;;;;;;1842809;76;21155;-76
2022/09/08 07:24:02;;;;;;;13.03;10.95;;;;;;;;;;1838059;77;21124;-74
2022/09/08 07:26:33;;;;;;;12.73;11.38;;;;;;;;;;1848150;76;21173;-74
2022/09/08 07:29:04;;;;;;;11.10;10.05;;;;;;;;;;1920537;74;21114;-74
2022/09/08 07:31:36;;;;;;;11.60;10.43;;;;;;;;;;1919921;73;21165;-75
2022/09/08 07:34:08;;;;;;;12.00;10.75;;;;;;;;;;1842262;77;21092;-75
2022/09/08 07:36:38;;;;;;;11.78;10.58;;;;;;;;;;1877199;76;21780;-75
2022/09/08 07:39:09;;;;;;;12.20;11.00;;;;;;;;;;1865822;77;21111;-75
2022/09/08 07:41:41;;;;;;;11.65;10.32;;;;;;;;;;1863679;77;21170;-75
2022/09/08 07:44:13;;;;;;;12.55;10.95;;;;;;;;;;1863266;76;21154;-75
2022/09/08 07:46:44;;;;;;;13.85;12.20;;;;;;;;;;1852068;77;22198;-75
2022/09/08 07:49:15;;;;;;;14.30;12.80;;;;;;;;;;1859928;76;21961;-76
2022/09/08 07:51:47;;;;;;;13.98;12.58;;;;;;;;;;1857874;76;21820;-75
2022/09/08 07:54:18;;;;;;;12.53;11.30;;;;;;;;;;1850583;76;22292;-75
2022/09/08 07:56:49;;;;;;;12.33;11.10;;;;;;;;;;1925543;72;21163;-75
2022/09/08 07:59:23;;;;;;;13.85;11.50;;;;;;;;;;1914426;72;21128;-76
2022/09/08 08:01:55;;;;;;;13.08;11.33;;;;;;;;;;1929339;73;21246;-76
2022/09/08 08:04:27;;;;;;;12.58;11.30;;;;;;;;;;1923390;73;21145;-75
2022/09/08 08:06:58;;;;;;;13.10;10.80;;;;;;;;;;1922955;72;21219;-75
2022/09/08 08:09:30;;;;;;;12.82;11.55;;;;;;;;;;1934428;73;21126;-74
2022/09/08 08:12:01;;;;;;;12.68;11.12;;;;;;;;;;1927118;73;21219;-73
2022/09/08 08:14:35;;;;;;;12.37;11.08;;;;;;;;;;1945082;73;21120;-74
2022/09/08 08:17:07;;;;;;;13.22;11.20;;;;;;;;;;1948140;72;21113;-74
2022/09/08 08:19:38;;;;;;;12.47;10.98;;;;;;;;;;1942336;73;21070;-73
2022/09/08 08:22:10;;;;;;;10.60;9.50;;;;;;;;;;1942349;71;21148;-74
2022/09/08 08:24:42;;;;;;;10.72;9.73;;;;;;;;;;1946676;73;21135;-74
2022/09/08 08:27:13;;;;;;;11.33;10.23;;;;;;;;;;1887851;74;21182;-73
2022/09/08 08:29:43;;;;;;;10.38;9.38;;;;;;;;;;1901761;74;21119;-74
2022/09/08 08:32:14;;;;;;;11.30;10.10;;;;;;;;;;1912731;73;21634;-74
2022/09/08 08:34:47;;;;;;;11.18;9.85;;;;;;;;;;1901673;73;21138;-72
2022/09/08 08:37:18;;;;;;;8.48;7.67;;;;;;;;;;1923807;73;21153;-73
2022/09/08 08:39:53;;;;;;;13.32;8.28;;;;;;;;;;1932356;73;21076;-73
2022/09/08 08:42:29;;;;;;;11.35;8.28;;;;;;;;;;1918041;73;21617;-74
2022/09/08 08:44:57;;;;;;;9.25;8.00;;;;;;;;;;1944879;73;21190;-74
2022/09/08 08:47:32;;;;;;;10.80;7.20;;;;;;;;;;1928808;73;21115;-73
2022/09/08 08:50:04;;;;;;;9.20;7.67;;;;;;;;;;1925219;73;21167;-73
2022/09/08 08:52:35;;;;;;;9.50;8.05;;;;;;;;;;1933479;73;21115;-74
2022/09/08 08:55:08;;;;;;;8.28;7.47;;;;;;;;;;1927895;72;21220;-74
2022/09/08 08:57:39;;;;;;;9.35;7.35;;;;;;;;;;1925567;73;21185;-74
2022/09/08 09:00:11;;;;;;;8.78;7.85;;;;;;;;;;1924985;73;21143;-74
2022/09/08 09:02:43;;;;;;;9.08;7.83;;;;;;;;;;1917888;73;21190;-74
2022/09/08 09:05:14;;;;;;;8.15;7.12;;;;;;;;;;1931969;73;21124;-75
2022/09/08 09:07:45;;;;;;;8.73;7.33;;;;;;;;;;1925334;73;21170;-74
2022/09/08 09:10:17;;;;;;;8.03;7.05;;;;;;;;;;1922697;73;21143;-76
2022/09/08 09:12:47;;;;;;;8.88;7.20;;;;;;;;;;1932119;73;21135;-76
2022/09/08 09:15:18;;;;;;;7.53;6.72;;;;;;;;;;1913831;73;21249;-76
2022/09/08 09:17:51;;;;;;;6.95;6.25;;;;;;;;;;1886512;73;21206;-73
2022/09/08 09:20:22;;;;;;;10.25;7.42;;;;;;;;;;1903207;73;21595;-77
2022/09/08 09:22:54;;;;;;;10.90;9.08;;;;;;;;;;1904095;73;21183;-75
2022/09/08 09:25:25;;;;;;;7.55;6.55;;;;;;;;;;1908148;74;21124;-76
2022/09/08 09:27:56;;;;;;;9.33;6.45;;;;;;;;;;1875972;75;21148;-76
2022/09/08 09:30:28;;;;;;;8.63;6.53;;;;;;;;;;1885074;75;21694;-75
2022/09/08 09:32:59;;;;;;;7.30;5.95;;;;;;;;;;1910309;73;21076;-76
2022/09/08 09:35:30;;;;;;;6.65;5.45;;;;;;;;;;1906860;73;21541;-75
2022/09/08 09:38:02;;;;;;;6.83;5.83;;;;;;;;;;1900517;73;21151;-75
2022/09/08 09:40:33;;;;;;;7.00;5.75;;;;;;;;;;1902808;73;21146;-75
2022/09/08 09:43:04;;;;;;;6.10;5.50;;;;;;;;;;1880818;75;21063;-74
2022/09/08 09:45:36;;;;;;;7.03;5.83;;;;;;;;;;1906427;73;21615;-74
2022/09/08 09:48:07;;;;;;;6.87;5.50;;;;;;;;;;1908850;73;21186;-74
2022/09/08 09:50:38;;;;;;;7.15;5.08;;;;;;;;;;1908014;73;21147;-74
2022/09/08 09:53:10;;;;;;;6.87;4.67;;;;;;;;;;1913836;73;21160;-74
2022/09/08 09:55:42;;;;;;;6.37;4.62;;;;;;;;;;1904843;73;21063;-75
2022/09/08 09:58:14;;;;;;;5.50;4.42;;;;;;;;;;1909619;73;21643;-74
2022/09/08 10:00:45;;;;;;;9.90;6.15;;;;;;;;;;1895812;73;21125;-75
2022/09/08 10:03:17;;;;;;;9.90;6.53;;;;;;;;;;1905344;73;21580;-74
2022/09/08 10:05:48;;;;;;;6.58;4.80;;;;;;;;;;1905002;73;21225;-74
2022/09/08 10:08:22;;;;;;;10.68;5.03;;;;;;;;;;1900703;73;21174;-73
2022/09/08 10:10:54;;;;;;;10.90;5.03;;;;;;;;;;1873369;75;21126;-74
2022/09/08 10:13:25;;;;;;;8.45;4.95;;;;;;;;;;1875470;75;21163;-75
2022/09/08 10:15:55;;;;;;;8.08;5.40;;;;;;;;;;1887610;74;21151;-75
2022/09/08 10:18:27;;;;;;;8.08;5.65;;;;;;;;;;1938248;72;21583;-75
2022/09/08 10:20:58;;;;;;;9.58;5.72;;;;;;;;;;1950805;72;21141;-75
2022/09/08 10:23:30;;;;;;;30.02;7.87;;;;;;;;;;1936454;72;21071;-75
2022/09/08 10:26:02;;;;;;;7.47;5.20;;;;;;;;;;1938984;72;21139;-75
2022/09/08 10:28:32;;;;;;;5.42;4.92;;;;;;;;;;1935006;72;21070;-74
2022/09/08 10:31:04;;;;;;;6.12;5.10;;;;;;;;;;1925249;72;21163;-74
2022/09/08 10:33:35;;;;;;;7.50;5.50;;;;;;;;;;1890594;74;21160;-75
2022/09/08 10:36:06;;;;;;;6.33;5.08;;;;;;;;;;1894478;74;21140;-74
2022/09/08 10:38:38;;;;;;;6.37;5.00;;;;;;;;;;1896689;74;21146;-75
2022/09/08 10:41:10;;;;;;;6.22;4.75;;;;;;;;;;1892718;74;21107;-75
2022/09/08 10:43:40;;;;;;;6.42;5.35;;;;;;;;;;1932201;72;21142;-75
2022/09/08 10:46:12;;;;;;;9.08;4.87;;;;;;;;;;1929144;72;21152;-74
2022/09/08 10:48:43;;;;;;;8.53;5.10;;;;;;;;;;1930020;72;21175;-74
2022/09/08 10:51:14;;;;;;;8.28;4.67;;;;;;;;;;1927975;72;21169;-74
2022/09/08 10:53:46;;;;;;;7.78;5.10;;;;;;;;;;1929682;72;21133;-75
2022/09/08 10:56:17;;;;;;;7.12;5.60;;;;;;;;;;1939659;72;21130;-74
2022/09/08 10:58:50;;;;;;;7.03;5.30;;;;;;;;;;1932423;72;21109;-75
2022/09/08 11:01:19;;;;;;;8.38;5.55;;;;;;;;;;1920636;72;21168;-76
2022/09/08 11:03:51;;;;;;;10.35;6.33;;;;;;;;;;1937273;72;21138;-75
2022/09/08 11:06:22;;;;;;;7.17;5.35;;;;;;;;;;1937551;72;21108;-75
2022/09/08 11:08:54;;;;;;;8.58;6.15;;;;;;;;;;1915378;74;21102;-74
2022/09/08 11:11:24;;;;;;;7.70;5.58;;;;;;;;;;1934219;74;21199;-76
2022/09/08 11:13:55;;;;;;;7.53;5.75;;;;;;;;;;1917808;73;21637;-75
2022/09/08 11:16:27;;;;;;;11.12;5.97;;;;;;;;;;1920281;73;21203;-75
2022/09/08 11:18:57;;;;;;;7.33;5.83;;;;;;;;;;1911663;72;21570;-75
2022/09/08 11:21:30;;;;;;;9.10;6.35;;;;;;;;;;1921673;72;21173;-74
2022/09/08 11:24:01;;;;;;;7.87;6.03;;;;;;;;;;1910365;74;21625;-75
2022/09/08 11:26:31;;;;;;;7.45;5.08;;;;;;;;;;1919909;72;21067;-74
2022/09/08 11:29:02;;;;;;;7.85;6.10;;;;;;;;;;1903916;72;21180;-86
2022/09/08 11:31:34;;;;;;;11.38;6.45;;;;;;;;;;1923061;74;21211;-84
2022/09/08 11:34:06;;;;;;;8.03;6.40;;;;;;;;;;1916644;73;21219;-85
2022/09/08 11:36:37;;;;;;;8.68;5.60;;;;;;;;;;1849766;76;21170;-85
2022/09/08 11:39:09;;;;;;;9.40;6.62;;;;;;;;;;1867818;75;21128;-85
2022/09/08 11:41:40;;;;;;;8.98;6.58;;;;;;;;;;1849580;76;21139;-83
2022/09/08 11:44:16;;;;;;;12.00;6.60;;;;;;;;;;1853989;76;21842;-84
2022/09/08 11:46:44;;;;;;;12.37;6.30;;;;;;;;;;1863364;74;21638;-83
2022/09/08 11:49:15;;;;;;;11.00;6.78;;;;;;;;;;1877836;74;21088;-84
2022/09/08 11:51:48;;;;;;;12.93;8.20;;;;;;;;;;1925345;72;21103;-82
2022/09/08 11:54:24;;;;;;;10.93;8.20;;;;;;;;;;1910490;72;21142;-83
2022/09/08 11:56:57;;;;;;;9.65;7.55;;;;;;;;;;1907308;72;21035;-84
2022/09/08 11:59:28;;;;;;;11.68;7.78;;;;;;;;;;1919792;74;21134;-83
2022/09/08 12:01:58;;;;;;;9.75;7.53;;;;;;;;;;1904959;74;21344;-82
2022/09/08 12:04:35;;;;;;;10.65;7.90;;;;;;;;;;1916625;72;21121;-83
2022/09/08 12:07:11;;;;;;;10.72;9.15;;;;;;;;;;1915149;73;21144;-84
2022/09/08 12:09:45;;;;;;;11.15;8.20;;;;;;;;;;1911257;72;21147;-83
2022/09/08 12:12:16;;;;;;;11.00;7.40;;;;;;;;;;1909262;74;21204;-84
2022/09/08 12:14:48;;;;;;;8.40;6.05;;;;;;;;;;1912626;72;21094;-83
2022/09/08 12:17:19;;;;;;;8.68;4.22;;;;;;;;;;1912890;72;21208;-83
2022/09/08 12:19:50;;;;;;;5.55;3.62;;;;;;;;;;1914723;72;21231;-82
2022/09/08 12:22:25;;;;;;;5.00;3.70;;;;;;;;;;1914535;72;21061;-83
2022/09/08 12:24:58;;;;;;;6.55;3.12;;;;;;;;;;1914954;74;21486;-83
2022/09/08 12:27:38;;;;;;;4.00;3.17;;;;;;;;;;1903584;74;21133;-82
2022/09/08 12:30:05;;;;;;;3.83;3.15;;;;;;;;;;1908698;74;21121;-82
2022/09/08 12:32:39;;;;;;;4.35;3.00;;;;;;;;;;1907118;74;21227;-83
2022/09/08 12:35:09;;;;;;;5.10;3.20;;;;;;;;;;1913730;72;21150;-82
2022/09/08 12:37:39;;;;;;;6.10;3.62;;;;;;;;;;1865441;75;21630;-83
2022/09/08 12:40:11;;;;;;;6.70;4.10;;;;;;;;;;1908218;74;21181;-83
2022/09/08 12:42:42;;;;;;;5.33;3.75;;;;;;;;;;1917681;72;21102;-83
2022/09/08 12:45:13;;;;;;;4.92;3.20;;;;;;;;;;1911583;72;21185;-82
2022/09/08 12:47:44;;;;;;;3.92;3.10;;;;;;;;;;1918701;72;21117;-81
2022/09/08 12:50:14;;;;;;;5.47;3.33;;;;;;;;;;1917097;73;21173;-82
2022/09/08 12:52:48;;;;;;;6.25;3.45;;;;;;;;;;1915413;74;21686;-81
2022/09/08 12:55:18;;;;;;;4.95;3.35;;;;;;;;;;1914345;74;21201;-82
2022/09/08 12:57:54;;;;;;;4.17;3.27;;;;;;;;;;1906337;74;21808;-82
2022/09/08 13:00:26;;;;;;;4.67;3.10;;;;;;;;;;1908722;74;21134;-83
2022/09/08 13:02:56;;;;;;;3.90;3.27;;;;;;;;;;1914084;72;21599;-84
2022/09/08 13:05:30;;;;;;;3.90;3.22;;;;;;;;;;1909543;74;21154;-84
2022/09/08 13:08:02;;;;;;;3.62;2.75;;;;;;;;;;1909728;73;21171;-83
2022/09/08 13:10:34;;;;;;;4.55;2.80;;;;;;;;;;1915907;74;21156;-83
2022/09/08 13:13:05;;;;;;;4.20;3.12;;;;;;;;;;1917557;74;21141;-82
2022/09/08 13:15:37;;;;;;;3.45;2.80;;;;;;;;;;1916841;73;21208;-82
2022/09/08 13:18:08;;;;;;;3.40;2.62;;;;;;;;;;1920295;73;21128;-83
2022/09/08 13:20:40;;;;;;;4.17;2.65;;;;;;;;;;1921347;74;21169;-84
2022/09/08 13:23:12;;;;;;;5.20;3.50;;;;;;;;;;1919705;72;21714;-81
2022/09/08 13:25:42;;;;;;;4.83;3.75;;;;;;;;;;1915433;72;21127;-84
2022/09/08 13:28:14;;;;;;;4.83;3.70;;;;;;;;;;1913757;74;21169;-83
2022/09/08 13:30:43;;;;;;;4.95;4.05;;;;;;;;;;1920379;74;21198;-83
2022/09/08 13:33:16;;;;;;;4.83;3.65;;;;;;;;;;1928360;72;21191;-82
2022/09/08 13:35:47;;;;;;;5.92;3.98;;;;;;;;;;1853127;75;21170;-82
2022/09/08 13:38:20;;;;;;;6.22;3.92;;;;;;;;;;1876364;75;21612;-82
2022/09/08 13:40:52;;;;;;;6.30;5.03;;;;;;;;;;1885636;75;21209;-82
2022/09/08 13:43:24;;;;;;;7.17;5.00;;;;;;;;;;1880627;75;21202;-82
2022/09/08 13:45:56;;;;;;;5.50;4.70;;;;;;;;;;1916313;72;21114;-83
2022/09/08 13:48:26;;;;;;;5.40;4.03;;;;;;;;;;1918601;74;21105;-82
2022/09/08 13:50:58;;;;;;;5.75;3.70;;;;;;;;;;1923561;74;22117;-83
2022/09/08 13:53:29;;;;;;;4.90;3.72;;;;;;;;;;1927677;73;21184;-82
2022/09/08 13:56:00;;;;;;;5.33;3.92;;;;;;;;;;1921736;74;21562;-83
2022/09/08 13:58:41;;;;;;;;;;;;;;;;;;;;;
2022/09/08 14:01:05;;;;;;;5.75;4.03;;;;;;;;;;1925325;73;21135;-83
2022/09/08 14:03:36;;;;;;;6.53;3.90;;;;;;;;;;1920121;72;21608;-83
2022/09/08 14:06:08;;;;;;;7.45;4.50;;;;;;;;;;1917567;73;21121;-83
2022/09/08 14:08:39;;;;;;;8.28;4.42;;;;;;;;;;1917137;74;21124;-82
2022/09/08 14:11:11;;;;;;;5.75;4.37;;;;;;;;;;1916935;74;21163;-83
2022/09/08 14:13:41;;;;;;;6.95;5.12;;;;;;;;;;1941328;72;21641;-81
2022/09/08 14:16:16;;;;;;;6.70;4.42;;;;;;;;;;1911456;72;21186;-82
2022/09/08 14:18:48;;;;;;;6.45;4.67;;;;;;;;;;1861377;76;21127;-83
2022/09/08 14:21:20;;;;;;;10.10;5.42;;;;;;;;;;1874321;73;21068;-83
2022/09/08 14:23:51;;;;;;;7.15;5.33;;;;;;;;;;1891749;73;21112;-83
2022/09/08 14:26:22;;;;;;;9.10;6.60;;;;;;;;;;1881225;75;21625;-83
2022/09/08 14:28:55;;;;;;;7.60;5.85;;;;;;;;;;1892162;74;21167;-82
2022/09/08 14:31:26;;;;;;;9.85;5.67;;;;;;;;;;1875835;75;21159;-83
2022/09/08 14:34:00;;;;;;;8.23;5.37;;;;;;;;;;1880069;75;21108;-83
2022/09/08 14:36:29;;;;;;;8.43;5.25;;;;;;;;;;1851234;76;21112;-83
2022/09/08 14:39:01;;;;;;;8.48;5.10;;;;;;;;;;1855105;76;21629;-83
2022/09/08 14:41:31;;;;;;;6.72;5.03;;;;;;;;;;1848668;74;21140;-83
2022/09/08 14:44:03;;;;;;;7.17;5.20;;;;;;;;;;1858897;76;21083;-82
2022/09/08 14:46:36;;;;;;;7.83;5.05;;;;;;;;;;1833979;76;21190;-83
2022/09/08 14:49:05;;;;;;;7.17;5.25;;;;;;;;;;1858364;76;21165;-83
2022/09/08 14:51:37;;;;;;;6.90;5.30;;;;;;;;;;1860163;74;21224;-85
2022/09/08 14:54:07;;;;;;;11.28;7.30;;;;;;;;;;1862961;76;21154;-83
2022/09/08 14:56:38;;;;;;;10.45;7.95;;;;;;;;;;1848734;75;21082;-83
2022/09/08 14:59:09;;;;;;;14.33;7.60;;;;;;;;;;1829710;76;21216;-83
2022/09/08 15:01:40;;;;;;;12.18;8.23;;;;;;;;;;1845558;75;21267;-84